createdAt,value
2022-09-04T00:02:28.175Z,0.55
2022-09-04T00:05:13.038Z,0.35
2022-09-04T00:08:02.516Z,0.75
2022-09-04T00:10:33.262Z,0.63
2022-09-04T00:13:08.800Z,0.60
2022-09-04T00:15:42.625Z,1.00
2022-09-04T00:18:20.727Z,0.57
2022-09-04T00:20:49.985Z,0.60
2022-09-04T00:23:30.281Z,0.50
2022-09-04T00:26:03.409Z,0.57
2022-09-04T00:28:42.502Z,0.55
2022-09-04T00:31:29.132Z,0.60
2022-09-04T00:34:10.872Z,0.40
2022-09-04T00:36:45.792Z,0.45
2022-09-04T00:39:34.470Z,0.70
2022-09-04T00:42:27.517Z,0.40
2022-09-04T00:45:22.231Z,0.60
2022-09-04T00:48:13.997Z,0.43
2022-09-04T00:50:59.920Z,0.45
2022-09-04T00:53:55.712Z,1.17
2022-09-04T00:56:46.779Z,0.70
2022-09-04T00:59:15.013Z,0.47
2022-09-04T01:01:44.871Z,0.55
2022-09-04T01:04:26.916Z,0.60
2022-09-04T01:07:10.967Z,0.70
2022-09-04T01:09:59.685Z,0.60
2022-09-04T01:12:37.074Z,0.85
2022-09-04T01:15:15.525Z,0.50
2022-09-04T01:17:55.592Z,0.50
2022-09-04T01:21:14.955Z,0.50
2022-09-04T01:23:56.737Z,0.88
2022-09-04T01:27:01.242Z,1.10
2022-09-04T01:29:52.584Z,0.52
2022-09-04T01:32:48.985Z,0.80
2022-09-04T01:35:34.088Z,0.55
2022-09-04T01:38:09.768Z,0.70
2022-09-04T01:40:58.372Z,0.75
2022-09-04T01:43:25.492Z,1.02
2022-09-04T01:46:26.078Z,0.63
2022-09-04T01:48:58.407Z,0.60
2022-09-04T01:51:28.424Z,0.90
2022-09-04T01:54:24.875Z,0.63
2022-09-04T01:57:19.967Z,0.85
2022-09-04T02:00:04.645Z,1.08
2022-09-04T02:02:34.761Z,0.70
2022-09-04T02:05:06.317Z,0.85
2022-09-04T02:07:53.349Z,0.80
2022-09-04T02:10:43.777Z,0.70
2022-09-04T02:13:22.407Z,0.88
2022-09-04T02:16:23.596Z,1.25
2022-09-04T02:19:26.559Z,0.65
2022-09-04T02:22:03.469Z,0.90
2022-09-04T02:25:00.568Z,1.38
2022-09-04T02:27:48.531Z,0.85
2022-09-04T02:30:19.062Z,0.73
2022-09-04T02:32:50.421Z,0.88
2022-09-04T02:35:36.033Z,0.82
2022-09-04T02:38:10.677Z,1.17
2022-09-04T02:40:58.184Z,0.55
2022-09-04T02:43:58.707Z,0.75
2022-09-04T02:46:33.753Z,0.85
2022-09-04T02:49:48.561Z,0.60
2022-09-04T02:52:52.176Z,0.80
2022-09-04T02:55:57.659Z,1.00
2022-09-04T02:59:00.529Z,0.95
2022-09-04T03:01:39.713Z,0.70
2022-09-04T03:04:24.966Z,0.80
2022-09-04T03:09:32.925Z,0.70
2022-09-04T03:12:26.876Z,0.90
2022-09-04T03:15:03.170Z,0.70
2022-09-04T03:17:36.207Z,0.70
2022-09-04T03:20:11.794Z,0.77
2022-09-04T03:23:10.009Z,0.70
2022-09-04T03:25:52.968Z,0.77
2022-09-04T03:28:40.257Z,0.60
2022-09-04T03:31:36.044Z,0.93
2022-09-04T03:34:10.101Z,1.38
2022-09-04T03:36:59.881Z,0.77
2022-09-04T03:39:34.071Z,0.77
2022-09-04T03:42:25.624Z,1.00
2022-09-04T03:44:53.910Z,0.77
2022-09-04T03:47:33.269Z,0.80
2022-09-04T03:50:37.764Z,1.00
2022-09-04T03:53:10.545Z,1.00
2022-09-04T03:55:49.263Z,0.80
2022-09-04T03:58:43.232Z,0.77
2022-09-04T04:01:42.360Z,1.20
2022-09-04T04:04:09.296Z,0.82
2022-09-04T04:07:11.048Z,0.55
2022-09-04T04:10:02.955Z,1.05
2022-09-04T04:12:49.856Z,0.90
2022-09-04T04:15:31.585Z,1.20
2022-09-04T04:18:16.828Z,0.70
2022-09-04T04:20:58.852Z,0.93
2022-09-04T04:23:44.588Z,1.48
2022-09-04T04:26:38.316Z,1.23
2022-09-04T04:30:06.370Z,1.05
2022-09-04T04:32:52.733Z,1.00
2022-09-04T04:35:40.471Z,0.80
2022-09-04T04:38:44.714Z,1.20
2022-09-04T04:41:25.615Z,0.88
2022-09-04T04:44:14.763Z,0.68
2022-09-04T04:47:02.792Z,0.77
2022-09-04T04:49:57.420Z,0.93
2022-09-04T04:52:44.382Z,0.85
2022-09-04T04:55:38.834Z,1.00
2022-09-04T04:58:24.457Z,0.87
2022-09-04T05:01:06.228Z,0.80
2022-09-04T05:04:00.741Z,0.60
2022-09-04T05:07:13.026Z,0.75
2022-09-04T05:10:00.890Z,1.05
2022-09-04T05:12:49.116Z,1.95
2022-09-04T05:15:24.683Z,0.80
2022-09-04T05:18:10.870Z,1.05
2022-09-04T05:21:01.034Z,1.52
2022-09-04T05:23:36.714Z,1.10
2022-09-04T05:26:41.027Z,0.95
2022-09-04T05:29:17.464Z,0.90
2022-09-04T05:32:29.081Z,0.88
2022-09-04T05:35:17.676Z,0.80
2022-09-04T05:38:03.652Z,0.85
2022-09-04T05:40:52.047Z,0.65
2022-09-04T05:43:40.302Z,1.17
2022-09-04T05:46:36.371Z,0.60
2022-09-04T05:49:34.196Z,0.80
2022-09-04T05:52:22.364Z,0.73
2022-09-04T05:55:31.699Z,0.80
2022-09-04T05:58:23.644Z,1.10
2022-09-04T06:01:09.586Z,1.50
2022-09-04T06:03:45.286Z,1.83
2022-09-04T06:06:20.515Z,0.98
2022-09-04T06:09:14.629Z,1.48
2022-09-04T06:11:47.613Z,1.13
2022-09-04T06:14:39.101Z,1.08
2022-09-04T06:17:22.131Z,1.20
2022-09-04T06:20:21.897Z,1.00
2022-09-04T06:23:03.664Z,0.95
2022-09-04T06:26:07.744Z,1.02
2022-09-04T06:29:07.080Z,1.33
2022-09-04T06:31:57.086Z,1.05
2022-09-04T06:34:45.793Z,1.00
2022-09-04T06:37:27.861Z,0.65
2022-09-04T06:40:21.759Z,1.30
2022-09-04T06:43:08.773Z,0.80
2022-09-04T06:45:58.929Z,0.77
2022-09-04T06:48:41.858Z,0.85
2022-09-04T06:51:33.234Z,0.98
2022-09-04T06:54:12.515Z,1.00
2022-09-04T06:56:48.240Z,0.90
2022-09-04T06:59:15.163Z,0.88
2022-09-04T07:02:03.160Z,1.15
2022-09-04T07:04:54.445Z,1.00
2022-09-04T07:07:34.942Z,1.10
2022-09-04T07:10:25.269Z,0.77
2022-09-04T07:13:29.733Z,0.70
2022-09-04T07:16:24.247Z,0.90
2022-09-04T07:19:01.432Z,1.10
2022-09-04T07:22:00.489Z,0.80
2022-09-04T07:24:48.948Z,0.77
2022-09-04T07:27:42.285Z,1.08
2022-09-04T07:30:11.927Z,0.73
2022-09-04T07:32:54.816Z,0.85
2022-09-04T07:35:36.324Z,0.95
2022-09-04T07:38:33.939Z,0.73
2022-09-04T07:41:44.277Z,0.80
2022-09-04T07:44:23.425Z,1.10
2022-09-04T07:47:12.725Z,1.15
2022-09-04T07:49:39.479Z,0.80
2022-09-04T07:52:21.835Z,1.17
2022-09-04T07:54:58.648Z,0.98
2022-09-04T07:57:40.553Z,1.02
2022-09-04T08:00:15.248Z,1.42
2022-09-04T08:03:01.472Z,0.90
2022-09-04T08:05:33.870Z,0.80
2022-09-04T08:08:35.933Z,0.80
2022-09-04T08:11:21.152Z,0.82
2022-09-04T08:14:20.200Z,0.82
2022-09-04T08:17:33.282Z,1.48
2022-09-04T08:20:38.563Z,0.70
2022-09-04T08:25:41.277Z,1.10
2022-09-04T08:28:17.782Z,0.82
2022-09-04T08:31:08.135Z,0.70
2022-09-04T08:33:49.232Z,0.80
2022-09-04T08:36:51.645Z,0.40
2022-09-04T08:39:45.634Z,0.60
2022-09-04T08:42:15.299Z,0.57
2022-09-04T08:45:17.357Z,0.90
2022-09-04T08:48:11.684Z,0.63
2022-09-04T08:50:59.624Z,0.45
2022-09-04T08:53:54.482Z,1.00
2022-09-04T08:56:35.137Z,0.57
2022-09-04T08:59:45.235Z,1.00
2022-09-04T09:02:35.117Z,0.50
2022-09-04T09:05:44.928Z,0.73
2022-09-04T09:08:34.294Z,0.75
2022-09-04T09:11:19.834Z,0.95
2022-09-04T09:14:01.839Z,0.73
2022-09-04T09:16:55.302Z,0.50
2022-09-04T09:19:56.343Z,0.60
2022-09-04T09:22:37.445Z,0.60
2022-09-04T09:25:25.215Z,0.93
2022-09-04T09:28:04.737Z,0.80
2022-09-04T09:31:02.741Z,0.98
2022-09-04T09:34:11.512Z,0.73
2022-09-04T09:36:47.411Z,0.50
2022-09-04T09:39:35.056Z,0.60
2022-09-04T09:42:01.982Z,0.50
2022-09-04T09:44:51.574Z,0.57
2022-09-04T09:47:45.785Z,0.70
2022-09-04T09:50:46.802Z,0.70
2022-09-04T09:53:22.896Z,0.50
2022-09-04T09:56:10.696Z,0.60
2022-09-04T09:59:24.123Z,0.80
2022-09-04T10:02:31.770Z,0.60
2022-09-04T10:05:31.625Z,0.60
2022-09-04T10:08:17.988Z,0.63
2022-09-04T10:10:54.737Z,0.60
2022-09-04T10:13:59.178Z,0.77
2022-09-04T10:16:58.141Z,0.73
2022-09-04T10:20:03.868Z,0.60
2022-09-04T10:23:05.856Z,0.77
2022-09-04T10:26:18.417Z,0.80
2022-09-04T10:29:29.198Z,0.60
2022-09-04T10:32:16.248Z,0.80
2022-09-04T10:35:03.211Z,0.60
2022-09-04T10:37:55.281Z,0.50
2022-09-04T10:40:44.464Z,0.55
2022-09-04T10:43:37.997Z,0.70
2022-09-04T10:46:22.912Z,0.82
2022-09-04T10:49:28.108Z,0.68
2022-09-04T10:52:21.716Z,0.80
2022-09-04T10:55:02.975Z,0.98
2022-09-04T10:57:54.423Z,0.93
2022-09-04T11:00:24.440Z,0.98
2022-09-04T11:03:11.278Z,0.65
2022-09-04T11:06:08.681Z,0.88
2022-09-04T11:09:00.653Z,1.02
2022-09-04T11:11:45.984Z,0.70
2022-09-04T11:14:28.907Z,1.10
2022-09-04T11:17:30.474Z,1.00
2022-09-04T11:20:17.583Z,0.63
2022-09-04T11:23:05.107Z,1.50
2022-09-04T11:25:53.346Z,0.90
2022-09-04T11:28:49.085Z,0.82
2022-09-04T11:31:40.419Z,0.60
2022-09-04T11:34:45.062Z,0.90
2022-09-04T11:37:41.116Z,0.80
2022-09-04T11:40:10.752Z,0.70
2022-09-04T11:43:08.767Z,0.77
2022-09-04T11:45:56.728Z,0.90
2022-09-04T11:48:47.455Z,0.98
2022-09-04T11:51:40.065Z,1.00
2022-09-04T11:54:40.577Z,0.80
2022-09-04T11:57:36.867Z,0.75
2022-09-04T12:00:07.348Z,0.60
2022-09-04T12:03:06.184Z,0.77
2022-09-04T12:06:13.926Z,1.02
2022-09-04T12:08:59.581Z,0.50
2022-09-04T12:12:00.982Z,0.60
2022-09-04T12:14:55.832Z,0.73
2022-09-04T12:17:37.228Z,0.80
2022-09-04T12:20:24.241Z,0.70
2022-09-04T12:23:17.396Z,0.70
2022-09-04T12:25:50.137Z,0.73
2022-09-04T12:28:33.705Z,0.82
2022-09-04T12:31:03.442Z,0.82
2022-09-04T12:33:56.837Z,0.80
2022-09-04T12:39:06.115Z,1.42
2022-09-04T12:41:50.027Z,0.73
2022-09-04T12:44:42.393Z,0.68
2022-09-04T12:47:28.937Z,0.75
2022-09-04T12:50:22.659Z,0.60
2022-09-04T12:53:19.191Z,0.70
2022-09-04T12:56:03.235Z,0.70
2022-09-04T12:58:48.938Z,0.77
2022-09-04T13:01:31.996Z,0.70
2022-09-04T13:04:03.994Z,0.85
2022-09-04T13:06:57.158Z,0.52
2022-09-04T13:09:55.654Z,0.70
2022-09-04T13:12:33.547Z,0.80
2022-09-04T13:15:10.941Z,0.77
2022-09-04T13:17:37.822Z,0.60
2022-09-04T13:20:18.769Z,0.70
2022-09-04T13:22:58.168Z,0.52
2022-09-04T13:25:43.311Z,0.60
2022-09-04T13:28:48.228Z,0.63
2022-09-04T13:31:18.344Z,0.90
2022-09-04T13:34:30.758Z,0.70
2022-09-04T13:37:15.993Z,0.65
2022-09-04T13:40:04.541Z,0.80
2022-09-04T13:43:08.330Z,0.93
2022-09-04T13:48:20.075Z,0.60
2022-09-04T13:50:53.626Z,0.50
2022-09-04T13:53:25.636Z,0.80
2022-09-04T13:56:14.260Z,0.70
2022-09-04T13:58:51.313Z,0.82
2022-09-04T14:01:23.761Z,0.80
2022-09-04T14:03:55.658Z,0.63
2022-09-04T14:06:25.712Z,0.80
2022-09-04T14:09:05.393Z,0.60
2022-09-04T14:12:10.443Z,0.70
2022-09-04T14:15:07.689Z,1.33
2022-09-04T14:17:53.300Z,0.90
2022-09-04T14:20:30.572Z,0.77
2022-09-04T14:23:23.984Z,0.80
2022-09-04T14:26:24.563Z,0.80
2022-09-04T14:29:04.116Z,0.73
2022-09-04T14:31:46.675Z,0.80
2022-09-04T14:34:34.043Z,0.88
2022-09-04T14:37:25.206Z,0.80
2022-09-04T14:40:02.374Z,0.85
2022-09-04T14:43:04.615Z,0.60
2022-09-04T14:45:51.865Z,0.60
2022-09-04T14:48:24.177Z,0.73
2022-09-04T14:51:00.044Z,0.70
2022-09-04T14:53:31.831Z,0.57
2022-09-04T14:56:08.149Z,0.95
2022-09-04T14:58:50.830Z,0.93
2022-09-04T15:01:24.538Z,0.80
2022-09-04T15:04:17.198Z,0.63
2022-09-04T15:07:10.293Z,0.73
2022-09-04T15:09:41.101Z,0.60
2022-09-04T15:12:25.064Z,0.60
2022-09-04T15:15:15.562Z,0.70
2022-09-04T15:18:10.613Z,0.60
2022-09-04T15:20:45.664Z,0.90
2022-09-04T15:23:41.979Z,0.80
2022-09-04T15:26:23.850Z,0.60
2022-09-04T15:29:07.078Z,1.38
2022-09-04T15:31:36.926Z,0.90
2022-09-04T15:34:10.575Z,1.05
2022-09-04T15:36:39.136Z,0.82
2022-09-04T15:39:15.781Z,0.70
2022-09-04T15:41:49.896Z,0.85
2022-09-04T15:44:30.390Z,0.82
2022-09-04T15:47:12.328Z,0.60
2022-09-04T15:49:59.133Z,0.80
2022-09-04T15:52:48.505Z,0.70
2022-09-04T15:55:32.907Z,0.63
2022-09-04T15:58:29.298Z,0.65
2022-09-04T16:01:06.535Z,0.85
2022-09-04T16:04:01.263Z,0.80
2022-09-04T16:06:35.400Z,0.80
2022-09-04T16:09:16.489Z,1.30
2022-09-04T16:11:49.185Z,0.68
2022-09-04T16:14:27.307Z,0.70
2022-09-04T16:17:02.048Z,0.60
2022-09-04T16:19:37.895Z,0.70
2022-09-04T16:22:31.408Z,0.95
2022-09-04T16:25:10.200Z,0.90
2022-09-04T16:27:55.408Z,0.80
2022-09-04T16:30:32.971Z,0.70
2022-09-04T16:33:01.327Z,1.00
2022-09-04T16:35:41.526Z,0.80
2022-09-04T16:38:19.946Z,1.30
2022-09-04T16:40:56.135Z,1.70
2022-09-04T16:43:34.393Z,1.58
2022-09-04T16:46:23.386Z,1.52
2022-09-04T16:48:59.309Z,1.38
2022-09-04T16:51:47.600Z,1.48
2022-09-04T16:54:28.705Z,1.58
2022-09-04T16:57:13.130Z,1.30
2022-09-04T16:59:48.957Z,1.40
2022-09-04T17:02:35.722Z,1.20
2022-09-04T17:05:28.147Z,1.10
2022-09-04T17:08:05.789Z,1.00
2022-09-04T17:10:45.708Z,1.23
2022-09-04T17:13:30.598Z,0.90
2022-09-04T17:16:19.841Z,1.48
2022-09-04T17:18:55.530Z,1.77
2022-09-04T17:24:56.367Z,1.95
2022-09-04T17:29:08.242Z,1.27
2022-09-04T17:29:08.803Z,0.90
2022-09-04T17:31:13.563Z,0.80
2022-09-04T17:40:35.106Z,0.65
2022-09-04T17:40:50.142Z,1.10
2022-09-04T17:40:55.088Z,1.08
2022-09-04T17:43:22.327Z,0.80
2022-09-04T17:46:24.530Z,0.80
2022-09-04T17:48:53.440Z,0.95
2022-09-04T17:51:32.012Z,1.60
2022-09-04T17:54:02.316Z,1.10
2022-09-04T17:56:40.757Z,1.30
2022-09-04T17:59:32.796Z,1.40
2022-09-04T18:02:13.073Z,1.13
2022-09-04T18:04:53.333Z,1.02
2022-09-04T18:08:08.437Z,1.20
2022-09-04T18:10:34.374Z,1.20
2022-09-04T18:13:36.249Z,0.98
2022-09-04T18:16:28.376Z,0.98
2022-09-04T18:18:58.776Z,0.95
2022-09-04T18:21:43.782Z,1.02
2022-09-04T18:24:28.841Z,1.45
2022-09-04T18:27:17.580Z,2.40
2022-09-04T18:33:53.603Z,1.70
2022-09-04T18:37:19.121Z,1.30
2022-09-04T18:37:21.950Z,1.50
2022-09-04T18:39:36.620Z,1.95
2022-09-04T18:50:15.759Z,1.65
2022-09-04T18:50:23.593Z,1.05
2022-09-04T18:50:33.639Z,1.00
2022-09-04T18:53:54.186Z,1.27
2022-09-04T18:56:36.162Z,2.40
2022-09-04T18:59:25.928Z,2.38
2022-09-04T19:02:00.922Z,2.33
2022-09-04T19:04:34.198Z,1.77
2022-09-04T19:07:07.279Z,1.63
2022-09-04T19:09:57.978Z,1.35
2022-09-04T19:12:38.272Z,1.00
2022-09-04T19:15:43.797Z,1.98
2022-09-04T19:18:41.574Z,1.88
2022-09-04T19:21:09.293Z,1.67
2022-09-04T19:23:58.724Z,1.70
2022-09-04T19:26:42.175Z,2.10
2022-09-04T19:29:26.950Z,1.40
2022-09-04T19:34:44.245Z,2.00
2022-09-04T19:38:55.815Z,1.80
2022-09-04T19:45:55.680Z,1.50
2022-09-04T19:46:05.051Z,1.10
2022-09-04T19:46:40.195Z,1.10
2022-09-04T19:51:08.062Z,1.48
2022-09-04T19:53:30.394Z,1.52
2022-09-04T19:55:37.867Z,1.50
2022-09-04T19:58:21.482Z,1.90
2022-09-04T20:00:58.273Z,1.70
2022-09-04T20:03:45.466Z,1.40
2022-09-04T20:06:47.193Z,1.30
2022-09-04T20:09:37.364Z,1.20
2022-09-04T20:12:21.208Z,2.35
2022-09-04T20:15:13.866Z,1.93
2022-09-04T20:18:05.638Z,1.48
2022-09-04T20:20:49.659Z,1.40
2022-09-04T20:23:33.737Z,1.17
2022-09-04T20:26:17.593Z,1.13
2022-09-04T20:28:52.204Z,1.88
2022-09-04T20:31:28.476Z,1.75
2022-09-04T20:34:12.016Z,1.48
2022-09-04T20:36:48.910Z,0.88
2022-09-04T20:39:48.658Z,1.10
2022-09-04T20:42:46.161Z,0.95
2022-09-04T20:46:51.374Z,1.05
2022-09-04T20:52:41.574Z,1.25
2022-09-04T20:52:56.430Z,0.93
2022-09-04T20:55:08.820Z,0.95
2022-09-04T21:02:57.823Z,1.35
2022-09-04T21:03:10.709Z,1.05
2022-09-04T21:04:04.689Z,1.17
2022-09-04T21:06:38.919Z,0.70
2022-09-04T21:09:24.208Z,1.00
2022-09-04T21:11:59.088Z,1.13
2022-09-04T21:14:44.578Z,0.85
2022-09-04T21:17:35.141Z,1.17
2022-09-04T21:20:41.846Z,1.00
2022-09-04T21:23:30.733Z,0.90
2022-09-04T21:26:00.306Z,0.93
2022-09-04T21:28:30.082Z,1.00
2022-09-04T21:31:32.895Z,1.05
2022-09-04T21:34:18.218Z,0.60
2022-09-04T21:37:02.571Z,0.88
2022-09-04T21:39:49.374Z,0.80
2022-09-04T21:42:34.809Z,0.95
2022-09-04T21:45:28.232Z,0.95
2022-09-04T21:48:18.436Z,0.80
2022-09-04T21:50:53.449Z,1.30
2022-09-04T21:53:52.539Z,1.00
2022-09-04T22:02:27.076Z,1.23
2022-09-04T22:02:42.628Z,0.95
2022-09-04T22:03:02.114Z,0.90
2022-09-04T22:06:03.799Z,0.88
2022-09-04T22:13:32.523Z,1.17
2022-09-04T22:13:37.850Z,1.50
2022-09-04T22:15:54.869Z,1.40
2022-09-04T22:18:43.100Z,1.60
2022-09-04T22:21:24.382Z,1.10
2022-09-04T22:24:05.225Z,1.30
2022-09-04T22:26:31.972Z,1.20
2022-09-04T22:29:17.310Z,0.90
2022-09-04T22:32:03.068Z,1.10
2022-09-04T22:34:52.146Z,0.95
2022-09-04T22:37:40.563Z,1.52
2022-09-04T22:40:56.808Z,1.40
2022-09-04T22:43:25.606Z,2.00
2022-09-04T22:46:47.923Z,0.98
2022-09-04T22:49:32.716Z,1.10
2022-09-04T22:54:52.609Z,1.35
2022-09-04T22:57:44.690Z,0.88
2022-09-04T23:00:18.833Z,0.80
2022-09-04T23:03:39.243Z,1.25
2022-09-04T23:11:15.514Z,1.20
2022-09-04T23:13:44.792Z,1.20
2022-09-04T23:13:50.739Z,1.52
2022-09-04T23:15:59.704Z,1.48
2022-09-04T23:26:39.155Z,1.20
2022-09-04T23:26:39.420Z,1.15
2022-09-04T23:26:48.840Z,1.23
2022-09-04T23:28:28.576Z,1.05
2022-09-04T23:31:37.534Z,0.95
2022-09-04T23:34:16.685Z,1.13
2022-09-04T23:37:21.329Z,1.20
2022-09-04T23:40:16.784Z,1.03
2022-09-04T23:43:25.647Z,1.38
2022-09-04T23:46:01.774Z,1.13
2022-09-04T23:49:12.263Z,1.00
2022-09-04T23:51:48.016Z,1.10
2022-09-04T23:54:49.375Z,1.40
2022-09-04T23:58:25.344Z,1.25
